sensor_id;sensor_type;location;lat;lon;timestamp;pressure;altitude;pressure_sealevel;temperature;humidity
71107;BME280;58763;47.982;11.516;2023-06-05T00:00:46;94168.09;;;17.49;53.00
71107;BME280;58763;47.982;11.516;2023-06-05T00:03:12;94164.72;;;17.52;53.50
71107;BME280;58763;47.982;11.516;2023-06-05T00:05:38;94169.88;;;17.45;53.44
71107;BME280;58763;47.982;11.516;2023-06-05T00:08:03;94170.69;;;17.45;53.51
71107;BME280;58763;47.982;11.516;2023-06-05T00:10:29;94167.78;;;17.42;53.48
71107;BME280;58763;47.982;11.516;2023-06-05T00:12:55;94169.75;;;17.33;53.89
71107;BME280;58763;47.982;11.516;2023-06-05T00:15:21;94159.16;;;17.31;53.60
71107;BME280;58763;47.982;11.516;2023-06-05T00:17:46;94160.91;;;17.36;53.36
71107;BME280;58763;47.982;11.516;2023-06-05T00:20:12;94154.97;;;17.34;53.44
71107;BME280;58763;47.982;11.516;2023-06-05T00:22:38;94152.56;;;17.32;53.87
71107;BME280;58763;47.982;11.516;2023-06-05T00:25:09;94155.97;;;17.29;53.75
71107;BME280;58763;47.982;11.516;2023-06-05T00:27:35;94150.81;;;17.27;53.65
71107;BME280;58763;47.982;11.516;2023-06-05T00:30:01;94147.91;;;17.33;53.95
71107;BME280;58763;47.982;11.516;2023-06-05T00:32:26;94149.22;;;17.26;54.43
71107;BME280;58763;47.982;11.516;2023-06-05T00:34:52;94151.31;;;17.21;54.07
71107;BME280;58763;47.982;11.516;2023-06-05T00:37:19;94149.53;;;17.25;54.66
71107;BME280;58763;47.982;11.516;2023-06-05T00:39:45;94142.00;;;17.22;54.49
71107;BME280;58763;47.982;11.516;2023-06-05T00:42:10;94141.97;;;17.31;54.75
71107;BME280;58763;47.982;11.516;2023-06-05T00:44:36;94141.31;;;17.34;54.98
71107;BME280;58763;47.982;11.516;2023-06-05T00:47:03;94142.88;;;17.05;55.77
71107;BME280;58763;47.982;11.516;2023-06-05T00:49:29;94137.97;;;16.65;57.33
71107;BME280;58763;47.982;11.516;2023-06-05T00:51:56;94142.19;;;16.53;57.27
71107;BME280;58763;47.982;11.516;2023-06-05T00:54:22;94148.09;;;16.64;56.91
71107;BME280;58763;47.982;11.516;2023-06-05T00:56:48;94136.22;;;16.60;57.13
71107;BME280;58763;47.982;11.516;2023-06-05T00:59:14;94137.66;;;16.57;57.10
71107;BME280;58763;47.982;11.516;2023-06-05T01:01:40;94148.59;;;16.66;56.58
71107;BME280;58763;47.982;11.516;2023-06-05T01:04:08;94145.97;;;16.78;56.74
71107;BME280;58763;47.982;11.516;2023-06-05T01:06:34;94142.63;;;16.73;57.29
71107;BME280;58763;47.982;11.516;2023-06-05T01:09:02;94142.94;;;16.71;57.17
71107;BME280;58763;47.982;11.516;2023-06-05T01:11:33;94139.25;;;16.67;57.31
71107;BME280;58763;47.982;11.516;2023-06-05T01:14:22;94142.00;;;16.67;57.38
71107;BME280;58763;47.982;11.516;2023-06-05T01:16:51;94146.34;;;16.68;57.18
71107;BME280;58763;47.982;11.516;2023-06-05T01:19:20;94142.16;;;16.71;57.04
71107;BME280;58763;47.982;11.516;2023-06-05T01:21:49;94144.88;;;16.71;57.76
71107;BME280;58763;47.982;11.516;2023-06-05T01:24:14;94140.88;;;16.68;57.66
71107;BME280;58763;47.982;11.516;2023-06-05T01:27:14;94140.41;;;16.66;58.17
71107;BME280;58763;47.982;11.516;2023-06-05T01:32:30;94139.59;;;16.57;58.22
71107;BME280;58763;47.982;11.516;2023-06-05T01:35:06;94141.66;;;16.69;58.31
71107;BME280;58763;47.982;11.516;2023-06-05T01:37:33;94140.06;;;16.68;58.40
71107;BME280;58763;47.982;11.516;2023-06-05T01:40:08;94138.47;;;16.58;58.31
71107;BME280;58763;47.982;11.516;2023-06-05T01:42:36;94141.22;;;16.58;58.71
71107;BME280;58763;47.982;11.516;2023-06-05T01:45:04;94140.91;;;16.51;59.06
71107;BME280;58763;47.982;11.516;2023-06-05T01:47:30;94134.81;;;16.54;59.27
71107;BME280;58763;47.982;11.516;2023-06-05T01:49:56;94134.63;;;16.59;59.14
71107;BME280;58763;47.982;11.516;2023-06-05T01:52:22;94132.72;;;16.51;59.59
71107;BME280;58763;47.982;11.516;2023-06-05T01:54:48;94131.72;;;16.55;59.67
71107;BME280;58763;47.982;11.516;2023-06-05T01:57:15;94125.94;;;16.48;60.06
71107;BME280;58763;47.982;11.516;2023-06-05T01:59:41;94136.72;;;16.45;59.93
71107;BME280;58763;47.982;11.516;2023-06-05T02:02:09;94134.00;;;16.53;60.07
71107;BME280;58763;47.982;11.516;2023-06-05T02:04:34;94131.72;;;16.47;60.18
71107;BME280;58763;47.982;11.516;2023-06-05T02:07:00;94137.81;;;16.44;60.30
71107;BME280;58763;47.982;11.516;2023-06-05T02:09:29;94131.06;;;16.41;60.67
71107;BME280;58763;47.982;11.516;2023-06-05T02:11:57;94122.75;;;16.38;60.74
71107;BME280;58763;47.982;11.516;2023-06-05T02:14:23;94134.31;;;16.35;60.48
71107;BME280;58763;47.982;11.516;2023-06-05T02:16:50;94135.41;;;16.34;61.04
71107;BME280;58763;47.982;11.516;2023-06-05T02:19:15;94123.22;;;16.31;61.30
71107;BME280;58763;47.982;11.516;2023-06-05T02:21:42;94126.75;;;16.32;61.18
71107;BME280;58763;47.982;11.516;2023-06-05T02:24:07;94120.16;;;16.24;61.78
71107;BME280;58763;47.982;11.516;2023-06-05T02:26:33;94119.88;;;16.26;61.75
71107;BME280;58763;47.982;11.516;2023-06-05T02:28:59;94120.47;;;16.31;61.91
71107;BME280;58763;47.982;11.516;2023-06-05T02:31:25;94120.81;;;16.30;61.76
71107;BME280;58763;47.982;11.516;2023-06-05T02:33:52;94122.91;;;16.33;62.35
71107;BME280;58763;47.982;11.516;2023-06-05T02:36:18;94124.84;;;16.24;62.34
71107;BME280;58763;47.982;11.516;2023-06-05T02:38:44;94137.50;;;16.20;62.48
71107;BME280;58763;47.982;11.516;2023-06-05T02:41:10;94132.56;;;16.22;62.99
71107;BME280;58763;47.982;11.516;2023-06-05T02:43:35;94126.78;;;16.15;62.76
71107;BME280;58763;47.982;11.516;2023-06-05T02:46:01;94128.03;;;16.09;63.54
71107;BME280;58763;47.982;11.516;2023-06-05T02:48:26;94125.66;;;16.07;63.78
71107;BME280;58763;47.982;11.516;2023-06-05T02:50:52;94135.13;;;16.10;63.67
71107;BME280;58763;47.982;11.516;2023-06-05T02:53:18;94134.13;;;16.06;63.60
71107;BME280;58763;47.982;11.516;2023-06-05T02:55:43;94137.03;;;16.01;63.81
71107;BME280;58763;47.982;11.516;2023-06-05T02:58:09;94137.03;;;16.01;64.03
71107;BME280;58763;47.982;11.516;2023-06-05T03:00:39;94129.50;;;15.98;63.96
71107;BME280;58763;47.982;11.516;2023-06-05T03:03:05;94122.75;;;15.95;64.11
71107;BME280;58763;47.982;11.516;2023-06-05T03:05:32;94125.97;;;15.88;64.46
71107;BME280;58763;47.982;11.516;2023-06-05T03:07:58;94127.72;;;15.84;64.13
71107;BME280;58763;47.982;11.516;2023-06-05T03:10:26;94119.53;;;15.84;63.55
71107;BME280;58763;47.982;11.516;2023-06-05T03:12:53;94123.72;;;15.90;63.15
71107;BME280;58763;47.982;11.516;2023-06-05T03:15:18;94119.22;;;15.95;63.67
71107;BME280;58763;47.982;11.516;2023-06-05T03:17:44;94113.13;;;15.89;63.32
71107;BME280;58763;47.982;11.516;2023-06-05T03:20:11;94115.53;;;15.90;63.58
71107;BME280;58763;47.982;11.516;2023-06-05T03:22:37;94116.16;;;15.87;63.74
71107;BME280;58763;47.982;11.516;2023-06-05T03:25:04;94119.22;;;15.86;63.83
71107;BME280;58763;47.982;11.516;2023-06-05T03:27:30;94111.03;;;15.86;63.72
71107;BME280;58763;47.982;11.516;2023-06-05T03:29:55;94121.47;;;15.84;63.37
71107;BME280;58763;47.982;11.516;2023-06-05T03:32:21;94120.66;;;15.83;63.96
71107;BME280;58763;47.982;11.516;2023-06-05T03:34:47;94113.25;;;15.75;64.13
71107;BME280;58763;47.982;11.516;2023-06-05T03:37:15;94114.41;;;15.74;64.16
71107;BME280;58763;47.982;11.516;2023-06-05T03:39:41;94115.19;;;15.75;64.06
71107;BME280;58763;47.982;11.516;2023-06-05T03:42:07;94111.19;;;15.72;63.67
71107;BME280;58763;47.982;11.516;2023-06-05T03:44:34;94113.72;;;15.60;64.09
71107;BME280;58763;47.982;11.516;2023-06-05T03:47:00;94114.34;;;15.57;64.36
71107;BME280;58763;47.982;11.516;2023-06-05T03:49:26;94106.00;;;15.45;64.81
71107;BME280;58763;47.982;11.516;2023-06-05T03:51:54;94108.09;;;15.48;64.99
71107;BME280;58763;47.982;11.516;2023-06-05T03:54:26;94114.94;;;15.37;64.93
71107;BME280;58763;47.982;11.516;2023-06-05T03:56:54;94117.03;;;15.40;65.17
71107;BME280;58763;47.982;11.516;2023-06-05T03:59:21;94118.56;;;15.24;65.67
71107;BME280;58763;47.982;11.516;2023-06-05T04:01:49;94128.25;;;14.99;66.97
71107;BME280;58763;47.982;11.516;2023-06-05T04:04:15;94128.66;;;14.84;67.23
71107;BME280;58763;47.982;11.516;2023-06-05T04:06:41;94123.41;;;14.88;67.28
71107;BME280;58763;47.982;11.516;2023-06-05T04:09:07;94120.22;;;14.94;67.37
71107;BME280;58763;47.982;11.516;2023-06-05T04:11:41;94125.84;;;14.98;67.92
71107;BME280;58763;47.982;11.516;2023-06-05T04:14:08;94122.34;;;15.06;67.55
71107;BME280;58763;47.982;11.516;2023-06-05T04:16:35;94127.97;;;15.09;68.14
71107;BME280;58763;47.982;11.516;2023-06-05T04:19:05;94133.72;;;15.08;68.03
71107;BME280;58763;47.982;11.516;2023-06-05T04:21:33;94133.44;;;15.09;67.98
71107;BME280;58763;47.982;11.516;2023-06-05T04:23:59;94131.22;;;15.20;67.99
71107;BME280;58763;47.982;11.516;2023-06-05T04:26:25;94130.25;;;15.16;68.28
71107;BME280;58763;47.982;11.516;2023-06-05T04:28:51;94127.53;;;15.16;68.40
71107;BME280;58763;47.982;11.516;2023-06-05T04:31:17;94127.19;;;15.17;68.50
71107;BME280;58763;47.982;11.516;2023-06-05T04:33:43;94123.53;;;15.22;68.19
71107;BME280;58763;47.982;11.516;2023-06-05T04:36:09;94122.75;;;15.30;68.30
71107;BME280;58763;47.982;11.516;2023-06-05T04:38:37;94129.81;;;15.31;67.80
71107;BME280;58763;47.982;11.516;2023-06-05T04:41:02;94121.00;;;15.43;67.63
71107;BME280;58763;47.982;11.516;2023-06-05T04:43:28;94117.19;;;15.44;67.88
71107;BME280;58763;47.982;11.516;2023-06-05T04:45:54;94125.06;;;15.45;67.98
71107;BME280;58763;47.982;11.516;2023-06-05T04:48:19;94121.38;;;15.50;68.33
71107;BME280;58763;47.982;11.516;2023-06-05T04:50:45;94129.25;;;15.51;68.39
71107;BME280;58763;47.982;11.516;2023-06-05T04:53:12;94137.84;;;15.36;69.25
71107;BME280;58763;47.982;11.516;2023-06-05T04:55:37;94136.25;;;15.35;69.49
71107;BME280;58763;47.982;11.516;2023-06-05T04:58:03;94131.28;;;15.37;69.66
71107;BME280;58763;47.982;11.516;2023-06-05T05:00:29;94138.75;;;15.23;69.33
71107;BME280;58763;47.982;11.516;2023-06-05T05:02:54;94138.78;;;14.92;71.09
71107;BME280;58763;47.982;11.516;2023-06-05T05:05:20;94140.31;;;14.76;71.85
71107;BME280;58763;47.982;11.516;2023-06-05T05:07:46;94144.50;;;14.82;71.92
71107;BME280;58763;47.982;11.516;2023-06-05T05:10:11;94148.97;;;14.78;73.25
71107;BME280;58763;47.982;11.516;2023-06-05T05:12:37;94156.97;;;14.75;73.75
71107;BME280;58763;47.982;11.516;2023-06-05T05:15:04;94153.44;;;14.74;74.48
71107;BME280;58763;47.982;11.516;2023-06-05T05:17:30;94151.09;;;14.59;75.10
71107;BME280;58763;47.982;11.516;2023-06-05T05:19:56;94150.72;;;14.74;75.72
71107;BME280;58763;47.982;11.516;2023-06-05T05:22:22;94153.13;;;14.76;75.55
71107;BME280;58763;47.982;11.516;2023-06-05T05:24:48;94149.66;;;14.84;76.01
71107;BME280;58763;47.982;11.516;2023-06-05T05:27:13;94148.38;;;14.90;76.17
71107;BME280;58763;47.982;11.516;2023-06-05T05:29:39;94147.56;;;15.20;75.21
71107;BME280;58763;47.982;11.516;2023-06-05T05:32:04;94148.03;;;15.22;75.01
71107;BME280;58763;47.982;11.516;2023-06-05T05:34:30;94159.00;;;15.39;74.97
71107;BME280;58763;47.982;11.516;2023-06-05T05:36:56;94149.16;;;15.52;74.69
71107;BME280;58763;47.982;11.516;2023-06-05T05:39:22;94144.81;;;15.59;74.42
71107;BME280;58763;47.982;11.516;2023-06-05T05:41:47;94156.53;;;15.68;72.62
71107;BME280;58763;47.982;11.516;2023-06-05T05:44:13;94155.47;;;15.86;72.48
71107;BME280;58763;47.982;11.516;2023-06-05T05:46:38;94154.50;;;16.08;73.18
71107;BME280;58763;47.982;11.516;2023-06-05T05:49:04;94155.63;;;16.24;72.46
71107;BME280;58763;47.982;11.516;2023-06-05T05:51:29;94155.81;;;16.36;72.39
71107;BME280;58763;47.982;11.516;2023-06-05T05:53:56;94151.47;;;16.44;71.49
71107;BME280;58763;47.982;11.516;2023-06-05T05:56:21;94152.13;;;16.49;71.10
71107;BME280;58763;47.982;11.516;2023-06-05T05:58:47;94156.47;;;16.59;70.99
71107;BME280;58763;47.982;11.516;2023-06-05T06:01:12;94164.00;;;16.62;70.40
71107;BME280;58763;47.982;11.516;2023-06-05T06:03:38;94165.44;;;16.68;69.99
71107;BME280;58763;47.982;11.516;2023-06-05T06:06:04;94161.75;;;16.64;70.56
71107;BME280;58763;47.982;11.516;2023-06-05T06:08:33;94172.84;;;16.68;70.58
71107;BME280;58763;47.982;11.516;2023-06-05T06:10:59;94170.75;;;16.73;70.46
71107;BME280;58763;47.982;11.516;2023-06-05T06:13:24;94168.50;;;16.75;70.57
71107;BME280;58763;47.982;11.516;2023-06-05T06:15:50;94165.28;;;16.73;70.48
71107;BME280;58763;47.982;11.516;2023-06-05T06:18:16;94162.22;;;16.75;70.87
71107;BME280;58763;47.982;11.516;2023-06-05T06:20:42;94163.50;;;16.69;70.49
71107;BME280;58763;47.982;11.516;2023-06-05T06:23:10;94165.91;;;16.79;70.71
71107;BME280;58763;47.982;11.516;2023-06-05T06:25:38;94166.38;;;16.81;70.91
71107;BME280;58763;47.982;11.516;2023-06-05T06:28:04;94162.97;;;16.92;70.82
71107;BME280;58763;47.982;11.516;2023-06-05T06:30:31;94160.38;;;17.04;69.02
71107;BME280;58763;47.982;11.516;2023-06-05T06:32:57;94173.53;;;17.19;69.88
71107;BME280;58763;47.982;11.516;2023-06-05T06:35:25;94166.38;;;17.36;69.38
71107;BME280;58763;47.982;11.516;2023-06-05T06:37:55;94175.34;;;17.45;70.11
71107;BME280;58763;47.982;11.516;2023-06-05T06:40:21;94172.28;;;17.55;69.23
71107;BME280;58763;47.982;11.516;2023-06-05T06:42:48;94174.78;;;17.68;68.77
71107;BME280;58763;47.982;11.516;2023-06-05T06:45:14;94175.31;;;17.62;68.75
71107;BME280;58763;47.982;11.516;2023-06-05T06:47:40;94175.38;;;17.74;69.29
71107;BME280;58763;47.982;11.516;2023-06-05T06:50:06;94170.56;;;18.00;68.78
71107;BME280;58763;47.982;11.516;2023-06-05T06:52:32;94175.31;;;17.91;68.00
71107;BME280;58763;47.982;11.516;2023-06-05T06:54:58;94176.97;;;18.04;68.15
71107;BME280;58763;47.982;11.516;2023-06-05T06:57:23;94174.94;;;18.22;67.00
71107;BME280;58763;47.982;11.516;2023-06-05T06:59:49;94175.59;;;18.39;66.34
71107;BME280;58763;47.982;11.516;2023-06-05T07:02:19;94175.94;;;18.38;66.52
71107;BME280;58763;47.982;11.516;2023-06-05T07:04:45;94174.47;;;18.40;66.77
71107;BME280;58763;47.982;11.516;2023-06-05T07:07:12;94182.03;;;18.64;66.11
71107;BME280;58763;47.982;11.516;2023-06-05T07:09:38;94169.28;;;18.68;65.87
71107;BME280;58763;47.982;11.516;2023-06-05T07:12:04;94173.13;;;18.88;64.87
71107;BME280;58763;47.982;11.516;2023-06-05T07:14:34;94175.00;;;18.75;65.39
71107;BME280;58763;47.982;11.516;2023-06-05T07:17:01;94181.59;;;18.74;65.57
71107;BME280;58763;47.982;11.516;2023-06-05T07:19:31;94178.41;;;18.72;65.11
71107;BME280;58763;47.982;11.516;2023-06-05T07:21:57;94176.31;;;18.90;64.88
71107;BME280;58763;47.982;11.516;2023-06-05T07:24:24;94172.56;;;18.94;64.36
71107;BME280;58763;47.982;11.516;2023-06-05T07:26:51;94176.56;;;18.97;64.00
71107;BME280;58763;47.982;11.516;2023-06-05T07:29:18;94175.81;;;19.08;64.11
71107;BME280;58763;47.982;11.516;2023-06-05T07:31:44;94176.38;;;19.14;63.70
71107;BME280;58763;47.982;11.516;2023-06-05T07:34:10;94177.31;;;19.18;63.43
71107;BME280;58763;47.982;11.516;2023-06-05T07:36:38;94178.66;;;19.12;63.95
71107;BME280;58763;47.982;11.516;2023-06-05T07:39:04;94180.78;;;18.94;63.97
71107;BME280;58763;47.982;11.516;2023-06-05T07:41:30;94177.91;;;18.91;64.08
71107;BME280;58763;47.982;11.516;2023-06-05T07:43:57;94182.06;;;18.97;64.15
71107;BME280;58763;47.982;11.516;2023-06-05T07:46:22;94175.69;;;19.05;63.86
71107;BME280;58763;47.982;11.516;2023-06-05T07:48:48;94175.72;;;19.17;63.66
71107;BME280;58763;47.982;11.516;2023-06-05T07:51:13;94178.03;;;19.27;62.77
71107;BME280;58763;47.982;11.516;2023-06-05T07:53:39;94179.03;;;19.22;62.72
71107;BME280;58763;47.982;11.516;2023-06-05T07:56:05;94169.59;;;19.32;62.73
71107;BME280;58763;47.982;11.516;2023-06-05T07:58:31;94168.25;;;19.38;62.56
71107;BME280;58763;47.982;11.516;2023-06-05T08:00:58;94176.16;;;19.52;62.93
71107;BME280;58763;47.982;11.516;2023-06-05T08:03:24;94171.69;;;19.59;61.70
71107;BME280;58763;47.982;11.516;2023-06-05T08:05:50;94175.34;;;19.63;60.87
71107;BME280;58763;47.982;11.516;2023-06-05T08:08:16;94175.13;;;19.68;60.55
71107;BME280;58763;47.982;11.516;2023-06-05T08:10:43;94175.56;;;19.58;60.66
71107;BME280;58763;47.982;11.516;2023-06-05T08:13:09;94171.69;;;19.59;60.19
71107;BME280;58763;47.982;11.516;2023-06-05T08:15:35;94169.84;;;19.51;60.61
71107;BME280;58763;47.982;11.516;2023-06-05T08:18:01;94178.09;;;19.63;60.86
71107;BME280;58763;47.982;11.516;2023-06-05T08:20:27;94178.09;;;19.63;61.25
71107;BME280;58763;47.982;11.516;2023-06-05T08:22:54;94170.78;;;19.79;61.19
71107;BME280;58763;47.982;11.516;2023-06-05T08:25:23;94174.91;;;19.97;60.44
71107;BME280;58763;47.982;11.516;2023-06-05T08:27:49;94161.81;;;20.19;59.44
71107;BME280;58763;47.982;11.516;2023-06-05T08:30:16;94171.47;;;20.25;58.78
71107;BME280;58763;47.982;11.516;2023-06-05T08:32:42;94163.00;;;20.30;58.50
71107;BME280;58763;47.982;11.516;2023-06-05T08:35:09;94166.88;;;20.29;58.43
71107;BME280;58763;47.982;11.516;2023-06-05T08:37:36;94163.31;;;20.40;58.06
71107;BME280;58763;47.982;11.516;2023-06-05T08:40:05;94163.63;;;20.51;58.67
71107;BME280;58763;47.982;11.516;2023-06-05T08:42:35;94163.59;;;20.63;58.65
71107;BME280;58763;47.982;11.516;2023-06-05T08:45:04;94162.56;;;20.67;58.03
71107;BME280;58763;47.982;11.516;2023-06-05T08:47:30;94162.56;;;20.95;57.87
71107;BME280;58763;47.982;11.516;2023-06-05T08:49:56;94163.88;;;21.13;57.35
71107;BME280;58763;47.982;11.516;2023-06-05T08:52:23;94161.75;;;21.22;56.20
71107;BME280;58763;47.982;11.516;2023-06-05T08:54:49;94165.06;;;21.28;55.92
71107;BME280;58763;47.982;11.516;2023-06-05T08:57:15;94165.50;;;21.46;55.95
71107;BME280;58763;47.982;11.516;2023-06-05T08:59:41;94162.41;;;21.63;55.00
71107;BME280;58763;47.982;11.516;2023-06-05T09:02:08;94155.22;;;21.58;53.96
71107;BME280;58763;47.982;11.516;2023-06-05T09:04:34;94171.38;;;21.44;54.91
71107;BME280;58763;47.982;11.516;2023-06-05T09:07:01;94164.19;;;21.40;55.60
71107;BME280;58763;47.982;11.516;2023-06-05T09:09:28;94168.34;;;21.49;54.69
71107;BME280;58763;47.982;11.516;2023-06-05T09:12:07;94158.06;;;21.62;54.24
71107;BME280;58763;47.982;11.516;2023-06-05T09:14:34;94159.22;;;21.61;51.71
71107;BME280;58763;47.982;11.516;2023-06-05T09:17:01;94162.31;;;21.75;52.52
71107;BME280;58763;47.982;11.516;2023-06-05T09:19:40;94163.66;;;21.81;52.46
71107;BME280;58763;47.982;11.516;2023-06-05T09:22:07;94155.28;;;22.09;51.95
71107;BME280;58763;47.982;11.516;2023-06-05T09:24:33;94158.59;;;22.14;52.07
71107;BME280;58763;47.982;11.516;2023-06-05T09:27:04;94159.78;;;22.32;48.59
71107;BME280;58763;47.982;11.516;2023-06-05T09:29:40;94147.19;;;22.66;50.14
71107;BME280;58763;47.982;11.516;2023-06-05T09:32:18;94148.25;;;22.81;49.55
71107;BME280;58763;47.982;11.516;2023-06-05T09:34:55;94152.47;;;22.94;48.12
71107;BME280;58763;47.982;11.516;2023-06-05T09:37:36;94146.31;;;23.23;47.06
71107;BME280;58763;47.982;11.516;2023-06-05T09:40:03;94143.28;;;23.28;47.84
71107;BME280;58763;47.982;11.516;2023-06-05T09:42:34;94133.72;;;23.22;45.48
71107;BME280;58763;47.982;11.516;2023-06-05T09:45:01;94140.56;;;23.31;46.93
71107;BME280;58763;47.982;11.516;2023-06-05T09:47:27;94144.13;;;23.32;46.77
71107;BME280;58763;47.982;11.516;2023-06-05T09:49:52;94143.00;;;23.56;45.75
71107;BME280;58763;47.982;11.516;2023-06-05T09:52:18;94141.91;;;23.60;44.32
71107;BME280;58763;47.982;11.516;2023-06-05T09:54:45;94136.50;;;23.67;44.58
71107;BME280;58763;47.982;11.516;2023-06-05T09:57:12;94132.41;;;23.80;43.89
71107;BME280;58763;47.982;11.516;2023-06-05T10:02:13;94134.16;;;24.15;43.09
71107;BME280;58763;47.982;11.516;2023-06-05T10:04:46;94130.81;;;24.28;43.90
71107;BME280;58763;47.982;11.516;2023-06-05T10:07:12;94127.41;;;24.38;43.16
71107;BME280;58763;47.982;11.516;2023-06-05T10:09:38;94129.28;;;24.60;44.31
71107;BME280;58763;47.982;11.516;2023-06-05T10:12:06;94127.22;;;24.80;43.26
71107;BME280;58763;47.982;11.516;2023-06-05T10:14:34;94125.91;;;24.74;40.54
71107;BME280;58763;47.982;11.516;2023-06-05T10:17:01;94123.06;;;24.97;41.43
71107;BME280;58763;47.982;11.516;2023-06-05T10:19:27;94124.31;;;25.03;41.74
71107;BME280;58763;47.982;11.516;2023-06-05T10:21:53;94124.13;;;24.85;42.10
71107;BME280;58763;47.982;11.516;2023-06-05T10:24:23;94124.75;;;24.75;42.23
71107;BME280;58763;47.982;11.516;2023-06-05T10:35:19;94119.31;;;24.82;41.40
71107;BME280;58763;47.982;11.516;2023-06-05T10:38:20;94120.53;;;24.55;41.74
71107;BME280;58763;47.982;11.516;2023-06-05T10:41:00;94120.84;;;24.50;41.34
71107;BME280;58763;47.982;11.516;2023-06-05T10:43:28;94125.09;;;24.44;40.84
71107;BME280;58763;47.982;11.516;2023-06-05T10:45:54;94114.72;;;24.34;41.63
71107;BME280;58763;47.982;11.516;2023-06-05T10:48:20;94120.16;;;24.56;42.00
71107;BME280;58763;47.982;11.516;2023-06-05T10:50:46;94118.31;;;24.67;41.78
71107;BME280;58763;47.982;11.516;2023-06-05T10:53:44;94115.09;;;24.62;43.37
71107;BME280;58763;47.982;11.516;2023-06-05T10:59:14;94118.19;;;24.57;42.27
71107;BME280;58763;47.982;11.516;2023-06-05T11:01:40;94110.31;;;24.59;42.52
71107;BME280;58763;47.982;11.516;2023-06-05T11:04:06;94113.91;;;24.63;43.75
71107;BME280;58763;47.982;11.516;2023-06-05T11:06:32;94119.13;;;24.68;42.16
71107;BME280;58763;47.982;11.516;2023-06-05T11:11:56;94110.31;;;24.59;40.92
71107;BME280;58763;47.982;11.516;2023-06-05T11:14:23;94111.66;;;24.42;42.92
71107;BME280;58763;47.982;11.516;2023-06-05T11:16:49;94118.03;;;24.46;43.57
71107;BME280;58763;47.982;11.516;2023-06-05T11:22:08;94110.94;;;24.45;43.31
71107;BME280;58763;47.982;11.516;2023-06-05T11:24:35;94106.63;;;24.48;42.46
71107;BME280;58763;47.982;11.516;2023-06-05T11:27:06;94112.41;;;24.39;41.90
71107;BME280;58763;47.982;11.516;2023-06-05T11:29:32;94111.84;;;24.27;42.58
71107;BME280;58763;47.982;11.516;2023-06-05T11:31:58;94113.81;;;24.26;44.15
71107;BME280;58763;47.982;11.516;2023-06-05T11:34:24;94109.19;;;24.34;44.57
71107;BME280;58763;47.982;11.516;2023-06-05T11:36:51;94115.13;;;24.36;45.08
71107;BME280;58763;47.982;11.516;2023-06-05T11:39:16;94108.31;;;24.30;44.32
71107;BME280;58763;47.982;11.516;2023-06-05T11:41:43;94106.94;;;24.17;45.35
71107;BME280;58763;47.982;11.516;2023-06-05T11:44:09;94107.25;;;24.12;45.74
71107;BME280;58763;47.982;11.516;2023-06-05T11:46:39;94109.59;;;24.10;45.71
71107;BME280;58763;47.982;11.516;2023-06-05T11:49:06;94102.28;;;24.21;45.49
71107;BME280;58763;47.982;11.516;2023-06-05T11:51:33;94100.47;;;24.32;45.43
71107;BME280;58763;47.982;11.516;2023-06-05T11:53:59;94109.97;;;24.34;46.51
71107;BME280;58763;47.982;11.516;2023-06-05T11:56:27;94106.13;;;24.42;44.79
71107;BME280;58763;47.982;11.516;2023-06-05T11:58:54;94094.88;;;24.28;44.30
71107;BME280;58763;47.982;11.516;2023-06-05T12:01:20;94094.97;;;24.35;44.91
71107;BME280;58763;47.982;11.516;2023-06-05T12:04:07;94091.59;;;24.49;45.65
71107;BME280;58763;47.982;11.516;2023-06-05T12:06:39;94097.47;;;24.44;44.55
71107;BME280;58763;47.982;11.516;2023-06-05T12:09:07;94094.88;;;24.28;44.04
71107;BME280;58763;47.982;11.516;2023-06-05T12:11:37;94090.38;;;24.17;45.49
71107;BME280;58763;47.982;11.516;2023-06-05T12:14:07;94091.31;;;24.28;47.04
71107;BME280;58763;47.982;11.516;2023-06-05T12:16:42;94087.59;;;24.43;45.76
71107;BME280;58763;47.982;11.516;2023-06-05T12:19:17;94085.75;;;24.54;45.04
71107;BME280;58763;47.982;11.516;2023-06-05T12:21:45;94079.03;;;24.25;45.74
71107;BME280;58763;47.982;11.516;2023-06-05T12:24:11;94084.75;;;24.10;46.86
71107;BME280;58763;47.982;11.516;2023-06-05T12:26:53;94082.56;;;24.22;45.72
71107;BME280;58763;47.982;11.516;2023-06-05T12:29:20;94078.31;;;24.28;46.34
71107;BME280;58763;47.982;11.516;2023-06-05T12:31:51;94084.47;;;24.18;44.63
71107;BME280;58763;47.982;11.516;2023-06-05T12:34:17;94075.22;;;24.07;46.33
71107;BME280;58763;47.982;11.516;2023-06-05T12:36:43;94070.91;;;24.06;46.47
71107;BME280;58763;47.982;11.516;2023-06-05T12:39:11;94070.19;;;24.13;46.23
71107;BME280;58763;47.982;11.516;2023-06-05T12:41:38;94074.13;;;24.12;46.22
71107;BME280;58763;47.982;11.516;2023-06-05T12:44:05;94074.94;;;24.16;45.73
71107;BME280;58763;47.982;11.516;2023-06-05T12:46:33;94074.03;;;24.34;46.20
71107;BME280;58763;47.982;11.516;2023-06-05T12:48:59;94071.88;;;24.21;46.02
71107;BME280;58763;47.982;11.516;2023-06-05T12:51:26;94070.44;;;24.30;45.64
71107;BME280;58763;47.982;11.516;2023-06-05T12:53:53;94069.91;;;24.21;45.76
71107;BME280;58763;47.982;11.516;2023-06-05T12:56:19;94063.59;;;24.21;45.61
71107;BME280;58763;47.982;11.516;2023-06-05T12:58:57;94067.75;;;24.08;46.47
71107;BME280;58763;47.982;11.516;2023-06-05T13:01:23;94080.91;;;23.91;46.37
71107;BME280;58763;47.982;11.516;2023-06-05T13:03:50;94073.19;;;23.78;45.86
71107;BME280;58763;47.982;11.516;2023-06-05T13:06:15;94067.50;;;23.67;46.50
71107;BME280;58763;47.982;11.516;2023-06-05T13:08:42;94076.19;;;23.69;46.91
71107;BME280;58763;47.982;11.516;2023-06-05T13:11:08;94081.28;;;23.67;46.26
71107;BME280;58763;47.982;11.516;2023-06-05T13:13:33;94071.97;;;23.53;46.60